TimeMST,TemperatureF,Dew PointF,Humidity,Sea Level PressureIn,VisibilityMPH,Wind Direction,Wind SpeedMPH,Gust SpeedMPH,PrecipitationIn,Events,Conditions,WindDirDegrees,DateUTC
12:15 AM,55.4,32.0,41,29.57,10.0,NW,20.7,29.9,N/A,,Overcast,310,2013-12-03 07:15:00
12:35 AM,55.4,32.0,41,29.56,10.0,WNW,19.6,26.5,N/A,,Overcast,290,2013-12-03 07:35:00
12:55 AM,55.4,30.2,38,29.56,10.0,WNW,15.0,21.9,N/A,,Overcast,290,2013-12-03 07:55:00
1:15 AM,55.4,30.2,38,29.56,10.0,NW,9.2,-,N/A,,Mostly Cloudy,310,2013-12-03 08:15:00
1:35 AM,55.4,30.2,38,29.56,10.0,WNW,8.1,-,N/A,,Mostly Cloudy,300,2013-12-03 08:35:00
1:55 AM,53.6,28.4,38,29.54,10.0,Calm,Calm,-,N/A,,Overcast,0,2013-12-03 08:55:00
2:15 AM,53.6,30.2,41,29.53,10.0,Calm,Calm,-,N/A,,Overcast,0,2013-12-03 09:15:00
2:35 AM,50.0,30.2,47,29.54,10.0,Calm,Calm,-,N/A,,Overcast,0,2013-12-03 09:35:00
2:55 AM,46.4,30.2,53,29.53,10.0,South,9.2,-,N/A,,Overcast,190,2013-12-03 09:55:00
3:15 AM,51.8,30.2,44,29.53,10.0,SSW,12.7,-,N/A,,Overcast,210,2013-12-03 10:15:00
3:35 AM,46.4,28.4,50,29.53,10.0,SW,12.7,-,N/A,,Overcast,220,2013-12-03 10:35:00
3:55 AM,46.4,26.6,46,29.53,10.0,SSW,8.1,-,N/A,,Overcast,200,2013-12-03 10:55:00
4:15 AM,44.6,28.4,53,29.53,10.0,SW,11.5,-,N/A,,Overcast,220,2013-12-03 11:15:00
4:35 AM,42.8,28.4,57,29.52,10.0,SW,8.1,-,N/A,,Mostly Cloudy,230,2013-12-03 11:35:00
4:55 AM,42.8,28.4,57,29.52,10.0,WSW,6.9,-,N/A,,Scattered Clouds,250,2013-12-03 11:55:00
5:15 AM,41.0,28.4,61,29.51,10.0,SSW,4.6,-,N/A,,Mostly Cloudy,210,2013-12-03 12:15:00
5:35 AM,39.2,28.4,65,29.51,10.0,WSW,4.6,-,N/A,,Mostly Cloudy,240,2013-12-03 12:35:00
5:55 AM,37.4,28.4,70,29.51,10.0,SSW,4.6,-,N/A,,Scattered Clouds,210,2013-12-03 12:55:00
6:15 AM,37.4,28.4,70,29.51,10.0,WSW,6.9,-,N/A,,Clear,240,2013-12-03 13:15:00
6:35 AM,37.4,28.4,70,29.52,10.0,SW,6.9,-,N/A,,Scattered Clouds,230,2013-12-03 13:35:00
6:55 AM,37.4,28.4,70,29.51,10.0,SW,8.1,-,N/A,,Scattered Clouds,220,2013-12-03 13:55:00
7:15 AM,41.0,28.4,61,29.51,10.0,SW,6.9,-,N/A,,Clear,220,2013-12-03 14:15:00
7:35 AM,41.0,26.6,57,29.52,10.0,SW,6.9,-,N/A,,Mostly Cloudy,230,2013-12-03 14:35:00
7:55 AM,41.0,26.6,57,29.52,10.0,WSW,6.9,-,N/A,,Overcast,240,2013-12-03 14:55:00
8:15 AM,42.8,28.4,57,29.51,10.0,SSW,4.6,-,N/A,,Mostly Cloudy,210,2013-12-03 15:15:00
8:35 AM,42.8,26.6,53,29.52,10.0,West,5.8,-,N/A,,Mostly Cloudy,260,2013-12-03 15:35:00
8:55 AM,44.6,28.4,53,29.52,10.0,SW,3.5,-,N/A,,Overcast,230,2013-12-03 15:55:00
9:15 AM,44.6,26.6,49,29.52,10.0,Calm,Calm,-,N/A,,Mostly Cloudy,0,2013-12-03 16:15:00
9:35 AM,46.4,28.4,50,29.52,10.0,SSW,4.6,-,N/A,,Mostly Cloudy,200,2013-12-03 16:35:00
9:55 AM,48.2,28.4,46,29.53,10.0,South,8.1,-,N/A,,Scattered Clouds,180,2013-12-03 16:55:00
10:15 AM,51.8,28.4,41,29.54,10.0,South,5.8,-,N/A,,Mostly Cloudy,190,2013-12-03 17:15:00
10:35 AM,46.4,28.4,50,29.56,10.0,NE,8.1,-,N/A,,Overcast,40,2013-12-03 17:35:00
10:55 AM,48.2,28.4,46,29.56,10.0,North,9.2,-,N/A,,Overcast,10,2013-12-03 17:55:00
11:15 AM,51.8,30.2,44,29.54,10.0,ENE,6.9,-,N/A,,Overcast,70,2013-12-03 18:15:00
11:35 AM,51.8,28.4,41,29.54,10.0,ENE,5.8,-,N/A,,Overcast,60,2013-12-03 18:35:00
11:55 AM,53.6,30.2,41,29.53,10.0,ENE,12.7,-,N/A,,Scattered Clouds,70,2013-12-03 18:55:00
12:15 PM,46.4,32.0,57,29.53,10.0,NE,13.8,-,N/A,,Clear,50,2013-12-03 19:15:00
12:35 PM,42.8,32.0,66,29.54,10.0,NNE,15.0,-,N/A,,Scattered Clouds,20,2013-12-03 19:35:00
12:55 PM,42.8,32.0,66,29.56,10.0,NNE,18.4,23.0,N/A,,Mostly Cloudy,20,2013-12-03 19:55:00
1:15 PM,41.0,32.0,70,29.56,10.0,NNE,19.6,23.0,N/A,,Overcast,30,2013-12-03 20:15:00
1:35 PM,41.0,32.0,70,29.56,10.0,NNE,19.6,26.5,N/A,,Mostly Cloudy,20,2013-12-03 20:35:00
1:55 PM,37.4,32.0,81,29.57,10.0,NNE,24.2,29.9,N/A,,Mostly Cloudy,20,2013-12-03 20:55:00
2:15 PM,37.4,32.0,81,29.58,10.0,North,21.9,28.8,N/A,,Overcast,10,2013-12-03 21:15:00
2:35 PM,37.4,30.2,75,29.59,10.0,North,25.3,31.1,N/A,,Overcast,350,2013-12-03 21:35:00
2:55 PM,33.8,26.6,75,29.59,10.0,North,27.6,35.7,N/A,,Overcast,360,2013-12-03 21:55:00
3:15 PM,32.0,24.8,75,29.59,10.0,North,28.8,35.7,N/A,,Overcast,360,2013-12-03 22:15:00
3:35 PM,32.0,24.8,75,29.61,10.0,North,27.6,34.5,N/A,,Overcast,10,2013-12-03 22:35:00
3:55 PM,30.2,23.0,75,29.61,10.0,North,24.2,34.5,N/A,,Overcast,10,2013-12-03 22:55:00
4:15 PM,30.2,21.2,69,29.62,10.0,NNE,25.3,29.9,N/A,,Overcast,20,2013-12-03 23:15:00
4:35 PM,30.2,21.2,69,29.63,10.0,NNE,25.3,31.1,N/A,,Overcast,20,2013-12-03 23:35:00
4:55 PM,30.2,21.2,69,29.65,10.0,North,17.3,25.3,N/A,,Overcast,10,2013-12-03 23:55:00
5:15 PM,28.4,19.4,69,29.66,10.0,North,21.9,26.5,N/A,,Overcast,360,2013-12-04 00:15:00
5:35 PM,26.6,17.6,69,29.66,10.0,North,21.9,27.6,N/A,,Overcast,360,2013-12-04 00:35:00
5:55 PM,26.6,17.6,69,29.68,10.0,North,18.4,24.2,N/A,,Overcast,10,2013-12-04 00:55:00
6:15 PM,26.6,17.6,69,29.70,10.0,North,17.3,23.0,N/A,,Overcast,360,2013-12-04 01:15:00
6:35 PM,26.6,19.4,74,29.71,10.0,North,17.3,29.9,N/A,,Overcast,360,2013-12-04 01:35:00
6:55 PM,26.6,17.6,69,29.72,10.0,North,25.3,31.1,N/A,,Overcast,360,2013-12-04 01:55:00
7:15 PM,26.6,17.6,69,29.72,10.0,North,24.2,29.9,N/A,,Overcast,350,2013-12-04 02:15:00
7:35 PM,24.8,15.8,69,29.74,10.0,North,19.6,28.8,N/A,,Overcast,360,2013-12-04 02:35:00
7:55 PM,24.8,17.6,74,29.74,10.0,North,18.4,27.6,N/A,,Overcast,360,2013-12-04 02:55:00
8:15 PM,24.8,17.6,74,29.76,10.0,North,21.9,-,N/A,,Overcast,350,2013-12-04 03:15:00
8:35 PM,24.8,17.6,74,29.75,10.0,North,21.9,28.8,N/A,,Overcast,350,2013-12-04 03:35:00
8:55 PM,24.8,15.8,69,29.76,10.0,North,21.9,28.8,N/A,,Overcast,350,2013-12-04 03:55:00
9:15 PM,23.0,14.0,68,29.76,10.0,North,26.5,32.2,N/A,,Overcast,360,2013-12-04 04:15:00
9:35 PM,21.2,12.2,68,29.77,10.0,North,25.3,-,N/A,,Overcast,360,2013-12-04 04:35:00
9:55 PM,21.2,12.2,68,29.77,10.0,North,20.7,27.6,N/A,,Overcast,360,2013-12-04 04:55:00
10:15 PM,21.2,14.0,74,29.77,10.0,North,25.3,32.2,N/A,,Overcast,350,2013-12-04 05:15:00
10:35 PM,21.2,14.0,74,29.77,10.0,North,20.7,28.8,N/A,,Overcast,360,2013-12-04 05:35:00
10:55 PM,21.2,14.0,74,29.76,7.0,North,24.2,28.8,N/A,Snow,Light Snow,10,2013-12-04 05:55:00
11:15 PM,21.2,14.0,74,29.76,10.0,North,20.7,27.6,N/A,Snow,Light Snow,10,2013-12-04 06:15:00
11:35 PM,19.4,14.0,80,29.76,7.0,North,19.6,24.2,N/A,Snow,Light Snow,360,2013-12-04 06:35:00
11:55 PM,19.4,14.0,80,29.76,10.0,North,21.9,27.6,N/A,Snow,Light Snow,360,2013-12-04 06:55:00